Flight Track Log - Related Links

Times and Time Zones

All times are in EDT time to prevent confusion due to time zone crossing. See the UAL252 flight status page for this flight to view local times or setup timezone preferences in your user account.

Time Position Orientation Groundspeed Altitude Reporting Facility
EDT Latitude Longitude Course Direction KTS MPH feet Rate Location/Type
Tue 03:53:36 PM 32.7408 -117.2214 90° East 142 163 1,300  Level Los Angeles Center
Tue 03:54:38 PM 32.7661 -117.3003 291° West 220 253 3,400 2,468 Climbing Los Angeles Center
Tue 03:55:00 PM 32.6040 -116.9224 84° East  Level FlightAware Approximate
Tue 03:55:40 PM 32.7431 -117.3633 247° West 244 281 6,400  Level Los Angeles Center
Tue 03:56:00 PM 32.6167 -116.7826 90° East  Level FlightAware Approximate
Tue 03:56:43 PM 32.6931 -117.2825 126° Southeast 281 323 9,100  Level Los Angeles Center
Tue 03:57:00 PM 32.6333 -116.6448 90° East  Level FlightAware Approximate
Tue 03:57:44 PM 32.6672 -117.1867 108° East 301 346 11,400  Level Los Angeles Center
Tue 03:58:00 PM 32.6500 -116.5070 90° East  Level FlightAware Approximate
Tue 03:58:46 PM 32.6414 -117.0981 109° East 354 407 12,600  Level Los Angeles Center
Tue 04:00:00 PM 32.6106 -116.9567 104° East 372 428 15,500 2,409 Climbing Los Angeles Center
Tue 04:01:03 PM 32.6278 -116.8053 82° East 385 443 18,100 2,160 Climbing Los Angeles Center
Tue 04:02:05 PM 32.6403 -116.6733 84° East 399 459 20,000 1,839 Climbing Los Angeles Center
Tue 04:03:07 PM 32.6564 -116.5086 83° East 422 486 21,900 1,645 Climbing Los Angeles Center
Tue 04:04:09 PM 32.6683 -116.3678 84° East 436 502 23,400 1,368 Climbing Los Angeles Center
Tue 04:05:23 PM 32.6833 -116.2236 83° East 446 513 25,000 1,544 Climbing Los Angeles Center
Tue 04:06:25 PM 32.7000 -116.0469 84° East 452 520 26,900 1,645 Climbing Los Angeles Center
Tue 04:07:27 PM 32.7167 -115.8656 84° East 464 534 28,400 1,161 Climbing Los Angeles Center
Tue 04:08:29 PM 32.7311 -115.7111 84° East 473 544 29,300 919 Climbing Los Angeles Center
Tue 04:09:31 PM 32.7453 -115.5531 84° East 482 555 30,300 968 Climbing Los Angeles Center
Tue 04:10:33 PM 32.7519 -115.3908 87° East 492 566 31,300 968 Climbing Los Angeles Center
Tue 04:11:35 PM 32.7578 -115.2267 88° East 500 575 32,300 1,210 Climbing Los Angeles Center
Tue 04:12:37 PM 32.7614 -115.0297 89° East 497 572 33,800 1,306 Climbing Los Angeles Center
Tue 04:13:39 PM 32.7650 -114.9006 88° East 491 565 35,000 1,210 Climbing Los Angeles Center
Tue 04:14:41 PM 32.7694 -114.7072 88° East 487 560 36,300 968 Climbing Los Angeles Center
Tue 04:15:43 PM 32.7717 -114.5500 89° East 480 552 37,000 339 Climbing Los Angeles Center
Tue 04:16:45 PM 32.7744 -114.3933 89° East 475 547 37,000  Level Los Angeles Center
Tue 04:17:47 PM 32.7742 -114.2356 90° East 478 550 37,000  Level Los Angeles Center
Tue 04:18:49 PM 32.7775 -114.0450 89° East 479 551 37,000  Level Los Angeles Center
Tue 04:19:51 PM 32.7897 -113.8856 85° East 484 557 37,000  Level Los Angeles Center
Tue 04:20:53 PM 32.8125 -113.7303 80° East 479 551 37,000  Level Los Angeles Center
Tue 04:21:55 PM 32.8350 -113.5742 80° East 481 554 37,000  Level Los Angeles Center
Tue 04:22:11 PM 32.8417 -113.5239 81° East 479 551 37,000  Level Albuquerque Center
Tue 04:23:12 PM 32.8622 -113.3689 81° East 476 548 37,000  Level Albuquerque Center
Tue 04:24:14 PM 32.8842 -113.2125 80° East 476 548 37,000  Level Albuquerque Center
Tue 04:25:16 PM 32.9061 -113.0550 81° East 478 550 37,000  Level Albuquerque Center
Tue 04:26:18 PM 32.9275 -112.9000 81° East 475 547 37,000  Level Albuquerque Center
Tue 04:27:19 PM 32.9461 -112.7464 82° East 470 541 37,000  Level Albuquerque Center
Tue 04:28:21 PM 32.9356 -112.5878 94° East 479 551 37,000  Level Albuquerque Center
Tue 04:29:23 PM 32.9136 -112.4300 99° East 483 556 37,000  Level Albuquerque Center
Tue 04:30:25 PM 32.8903 -112.2497 99° East 484 557 37,000  Level Albuquerque Center
Tue 04:31:26 PM 32.8708 -112.0928 98° East 483 556 37,000  Level Albuquerque Center
Tue 04:32:28 PM 32.8500 -111.9381 99° East 479 551 37,000 48 Level Albuquerque Center
Tue 04:33:30 PM 32.8289 -111.7811 99° East 481 554 37,100  Climbing Albuquerque Center
Tue 04:34:31 PM 32.8083 -111.6272 99° East 477 549 37,000 -49 Descending Albuquerque Center
Tue 04:35:33 PM 32.7825 -111.4436 99° East 473 544 37,000  Level Albuquerque Center
Tue 04:36:35 PM 32.7617 -111.2903 99° East 472 543 37,000  Level Albuquerque Center
Tue 04:37:36 PM 32.7400 -111.1394 100° East 468 539 37,000  Level Albuquerque Center
Tue 04:38:38 PM 32.7183 -110.9872 100° East 469 540 37,000  Level Albuquerque Center
Tue 04:39:40 PM 32.6958 -110.8339 100° East 473 544 37,000 49 Level Albuquerque Center
Tue 04:40:41 PM 32.6733 -110.6808 100° East 473 544 37,100  Climbing Albuquerque Center
Tue 04:41:43 PM 32.6469 -110.4967 100° East 473 544 37,000 -48 Descending Albuquerque Center
Tue 04:42:45 PM 32.6239 -110.3461 100° East 469 540 37,000  Level Albuquerque Center
Tue 04:43:47 PM 32.6039 -110.2103 100° East 471 542 37,000  Level Albuquerque Center
Tue 04:44:48 PM 32.5772 -110.0306 100° East 468 539 37,000  Level Albuquerque Center
Tue 04:46:00 PM 32.5521 -109.8668 100° East  Level FlightAware Approximate
Tue 04:46:51 PM 32.5319 -109.7300 100° East 469 540 37,000  Level Albuquerque Center
Tue 04:47:53 PM 32.5064 -109.5781 101° East 474 545 37,000  Level Albuquerque Center
Tue 04:48:54 PM 32.4839 -109.4278 100° East 472 543 37,000  Level Albuquerque Center
Tue 04:49:56 PM 32.4553 -109.2483 101° East 470 541 37,000  Level Albuquerque Center
Tue 04:50:57 PM 32.4317 -109.0972 100° East 472 543 37,000  Level Albuquerque Center
Tue 04:51:59 PM 32.4069 -108.9469 101° East 473 544 37,000  Level Albuquerque Center
Tue 04:53:01 PM 32.3839 -108.7958 100° East 474 545 37,000  Level Albuquerque Center
Tue 04:54:02 PM 32.3597 -108.6461 101° East 472 543 37,000  Level Albuquerque Center
Tue 04:55:04 PM 32.3300 -108.4664 101° East 470 541 37,000  Level Albuquerque Center
Tue 04:56:06 PM 32.3072 -108.3242 101° East 468 539 37,000 -49 Level Albuquerque Center
Tue 04:57:07 PM 32.2822 -108.1739 101° East 467 537 36,900  Descending Albuquerque Center
Tue 04:58:09 PM 32.2567 -108.0250 101° East 466 536 37,000 48 Climbing Albuquerque Center
Tue 04:59:11 PM 32.2297 -107.8761 102° East 466 536 37,000  Level Albuquerque Center
Tue 05:00:14 PM 32.1878 -107.7017 106° East 464 534 37,000  Level Albuquerque Center
Tue 05:01:15 PM 32.1528 -107.5575 106° East 462 532 37,000  Level Albuquerque Center
Tue 05:02:17 PM 32.1194 -107.4150 105° East 458 527 37,000  Level Albuquerque Center
Tue 05:03:18 PM 32.0842 -107.2719 106° East 458 527 37,000  Level Albuquerque Center
Tue 05:04:20 PM 32.0508 -107.1297 105° East 457 526 37,000  Level Albuquerque Center
Tue 05:05:22 PM 32.0089 -106.9572 106° East 459 528 37,000  Level Albuquerque Center
Tue 05:06:23 PM 31.9733 -106.8167 107° East 454 522 37,000  Level Albuquerque Center
Tue 05:07:25 PM 31.9372 -106.6750 107° East 455 524 37,000  Level Albuquerque Center
Tue 05:08:26 PM 31.8989 -106.5219 106° East 455 524 37,000  Level Albuquerque Center
Tue 05:09:28 PM 31.8642 -106.3758 106° East 462 532 37,000  Level Albuquerque Center
Tue 05:10:29 PM 31.8283 -106.2319 106° East 460 529 37,000  Level Albuquerque Center
Tue 05:11:31 PM 31.7894 -106.0883 108° East 460 529 37,000  Level Albuquerque Center
Tue 05:12:33 PM 31.7528 -105.9467 107° East 454 522 37,000  Level Albuquerque Center
Tue 05:13:34 PM 31.7156 -105.8033 107° East 459 528 37,000  Level Albuquerque Center
Tue 05:14:36 PM 31.6792 -105.6600 107° East 458 527 37,000  Level Albuquerque Center
Tue 05:15:38 PM 31.6422 -105.5167 107° East 459 528 37,000  Level Albuquerque Center
Tue 05:16:39 PM 31.5975 -105.3428 107° East 462 532 37,000  Level Albuquerque Center
Tue 05:17:41 PM 31.5597 -105.2031 108° East 452 520 37,000  Level Albuquerque Center
Tue 05:18:42 PM 31.5231 -105.0611 107° East 452 520 37,000  Level Albuquerque Center
Tue 05:19:44 PM 31.4864 -104.9197 107° East 452 520 37,000  Level Albuquerque Center
Tue 05:20:46 PM 31.4475 -104.7769 108° East 455 524 37,000  Level Albuquerque Center
Tue 05:21:47 PM 31.4100 -104.6356 107° East 455 524 37,000  Level Albuquerque Center
Tue 05:22:49 PM 31.3733 -104.4947 107° East 452 520 37,000  Level Albuquerque Center
Tue 05:23:51 PM 31.3358 -104.3544 107° East 451 519 37,000  Level Albuquerque Center
Tue 05:24:53 PM 31.2992 -104.2144 107° East 451 519 37,000 -49 Level Albuquerque Center
Tue 05:25:54 PM 31.2517 -104.0481 108° East 450 518 36,900  Descending Albuquerque Center
Tue 05:26:56 PM 31.2136 -103.9097 108° East 450 518 37,000 48 Climbing Albuquerque Center
Tue 05:27:58 PM 31.1739 -103.7669 108° East 449 517 37,000  Level Albuquerque Center
Tue 05:28:59 PM 31.1350 -103.6283 108° East 450 518 37,000  Level Albuquerque Center
Tue 05:30:01 PM 31.0944 -103.4914 109° East 450 518 37,000  Level Albuquerque Center
Tue 05:31:03 PM 31.0558 -103.3519 108° East 452 520 37,000  Level Albuquerque Center
Tue 05:32:04 PM 31.0183 -103.2158 108° East 448 516 37,000  Level Albuquerque Center
Tue 05:33:06 PM 30.9728 -103.0514 108° East 446 513 37,000  Level Albuquerque Center
Tue 05:34:08 PM 30.9336 -102.9122 108° East 451 519 37,000  Level Albuquerque Center
Tue 05:35:09 PM 30.8964 -102.7742 107° East 451 519 37,000 -49 Level Albuquerque Center
Tue 05:36:11 PM 30.8592 -102.6353 107° East 452 520 36,900  Descending Albuquerque Center
Tue 05:36:52 PM 30.8364 -102.5522 108° East 451 519 37,000 58 Climbing Houston Center
Tue 05:37:55 PM 30.7911 -102.3889 108° East 448 516 37,000  Level Houston Center
Tue 05:38:15 PM 30.7844 -102.3606 105° East 451 519 37,000  Level Albuquerque Center
Tue 05:39:16 PM 30.7817 -102.1869 91° East 454 522 37,000  Level Albuquerque Center
Tue 05:39:59 PM 30.7817 -102.0994 90° East 454 522 37,000  Level Houston Center
Tue 05:41:01 PM 30.7856 -101.9522 88° East 457 526 37,000  Level Houston Center
Tue 05:42:03 PM 30.7875 -101.7772 89° East 456 525 37,000  Level Houston Center
Tue 05:43:05 PM 30.7894 -101.6322 89° East 453 521 37,000  Level Houston Center
Tue 05:44:07 PM 30.7914 -101.4819 89° East 452 520 37,000  Level Houston Center
Tue 05:45:09 PM 30.7933 -101.3364 89° East 451 519 37,000  Level Houston Center
Tue 05:46:11 PM 30.7947 -101.1897 89° East 453 521 37,000  Level Houston Center
Tue 05:47:14 PM 30.7978 -101.0425 89° East 455 524 37,000  Level Houston Center
Tue 05:48:16 PM 30.7981 -100.8961 90° East 453 521 37,000  Level Houston Center
Tue 05:49:18 PM 30.7989 -100.7511 90° East 448 516 37,000  Level Houston Center
Tue 05:50:20 PM 30.8011 -100.5739 89° East 452 520 37,000  Level Houston Center
Tue 05:51:22 PM 30.8022 -100.4272 89° East 452 520 37,000  Level Houston Center
Tue 05:52:24 PM 30.8019 -100.2806 90° East 452 520 37,000  Level Houston Center
Tue 05:53:26 PM 30.8025 -100.1339 90° East 454 522 37,000  Level Houston Center
Tue 05:54:28 PM 30.8036 -99.9867 89° East 454 522 37,000  Level Houston Center
Tue 05:55:30 PM 30.8022 -99.8397 91° East 454 522 37,000  Level Houston Center
Tue 05:56:33 PM 30.8028 -99.6639 90° East 453 521 37,000  Level Houston Center
Tue 05:57:35 PM 30.8022 -99.5164 90° East 456 525 37,000  Level Houston Center
Tue 05:58:37 PM 30.8011 -99.3681 90° East 460 529 37,000  Level Houston Center
Tue 05:59:39 PM 30.8017 -99.2208 90° East 456 525 37,000  Level Houston Center
Tue 06:00:41 PM 30.8003 -99.0544 91° East 457 526 37,000  Level Houston Center
Tue 06:01:43 PM 30.7978 -98.9047 91° East 460 529 37,000  Level Houston Center
Tue 06:02:45 PM 30.7961 -98.7556 91° East 459 528 37,000  Level Houston Center
Tue 06:03:48 PM 30.8006 -98.6044 88° East 462 532 37,000  Level Houston Center
Tue 06:04:50 PM 30.8039 -98.4533 88° East 463 533 37,000  Level Houston Center
Tue 06:05:52 PM 30.8064 -98.3017 89° East 465 535 37,000  Level Houston Center
Tue 06:06:54 PM 30.8092 -98.1503 89° East 464 534 37,000  Level Houston Center
Tue 06:07:56 PM 30.8111 -97.9728 89° East 466 536 37,000  Level Houston Center
Tue 06:08:58 PM 30.8131 -97.8189 89° East 470 541 37,000  Level Houston Center
Tue 06:10:00 PM 30.8147 -97.6681 89° East 467 537 37,000  Level Houston Center
Tue 06:11:02 PM 30.8158 -97.5167 89° East 466 536 37,000  Level Houston Center
Tue 06:12:05 PM 30.8164 -97.3656 90° East 468 539 37,000  Level Houston Center
Tue 06:13:07 PM 30.8192 -97.1861 89° East 485 558 37,000 -48 Level Houston Center
Tue 06:14:09 PM 30.8222 -97.0336 89° East 479 551 36,900 -1,210 Descending Houston Center
Tue 06:15:11 PM 30.8236 -96.8822 89° East 467 537 34,500 -2,855 Descending Houston Center
Tue 06:16:13 PM 30.8253 -96.7289 89° East 472 543 31,000 -3,097 Descending Houston Center
Tue 06:17:15 PM 30.8247 -96.5728 90° East 476 548 28,100 -2,806 Descending Houston Center
Tue 06:18:17 PM 30.8258 -96.3978 90° East 460 529 25,200 -2,661 Descending Houston Center
Tue 06:19:19 PM 30.8186 -96.2556 93° East 437 503 22,600 -2,516 Descending Houston Center
Tue 06:20:21 PM 30.7344 -96.1594 136° Southeast 415 478 20,000 -2,860 Descending Houston Center
Tue 06:20:45 PM 30.6978 -96.1211 138° Southeast 393 452 18,500 -2,613 Descending Houston Center
Tue 06:21:23 PM 30.6583 -96.0744 134° Southeast 380 437 17,300 -1,765 Descending Houston Center
Tue 06:21:53 PM 30.6147 -96.0333 141° Southeast 351 404 16,500 -1,548 Descending Houston Center
Tue 06:22:25 PM 30.5892 -96.0028 134° Southeast 350 403 15,700 -2,182 Descending Houston Center
Tue 06:22:48 PM 30.5547 -95.9700 141° Southeast 335 386 14,500 -2,129 Descending Houston Center
Tue 06:23:27 PM 30.5203 -95.9292 134° Southeast 339 390 13,500 -1,869 Descending Houston Center
Tue 06:23:49 PM 30.4831 -95.8933 140° Southeast 335 386 12,600 -1,333 Descending Houston Center
Tue 06:24:30 PM 30.4486 -95.8581 139° Southeast 338 389 12,100 -590 Descending Houston Center
Tue 06:24:50 PM 30.4117 -95.8194 138° Southeast 335 386 12,000 -97 Descending Houston Center
Tue 06:25:32 PM 30.3672 -95.7725 138° Southeast 332 382 12,000 -492 Level Houston Center
Tue 06:25:51 PM 30.3422 -95.7475 139° Southeast 325 374 11,500 -1,742 Descending Houston Center
Tue 06:26:34 PM 30.3019 -95.7031 136° Southeast 324 373 10,200 -1,479 Descending Houston Center
Tue 06:27:04 PM 30.2639 -95.6672 141° Southeast 304 350 9,700 -968 Descending Houston Center
Tue 06:27:36 PM 30.2394 -95.6392 135° Southeast 311 358 9,200 -1,320 Descending Houston Center
Tue 06:27:54 PM 30.2172 -95.6147 136° Southeast 284 327 8,600 -1,258 Descending Houston Center
Tue 06:28:38 PM 30.1833 -95.5800 138° Southeast 285 328 7,900 -1,300 Descending Houston Center
Tue 06:28:54 PM 30.1594 -95.5564 139° Southeast 271 312 7,300 -1,452 Descending Houston Center
Tue 06:29:40 PM 30.1272 -95.5228 138° Southeast 270 311 6,400 -1,147 Descending Houston Center
Tue 06:30:02 PM 30.1072 -95.4878 123° Southeast 268 308 6,000 -387 Descending Houston Center
Tue 06:30:42 PM 30.1061 -95.4447 92° East 278 320 6,000  Level Houston Center
Tue 06:31:03 PM 30.1072 -95.3961 88° East 270 311 6,000  Level Houston Center
Tue 06:31:44 PM 30.1061 -95.3400 91° East 271 312 6,000 -98 Level Houston Center
Tue 06:32:04 PM 30.1053 -95.3069 92° East 275 316 5,900 -1,161 Descending Houston Center
Tue 06:32:46 PM 30.1069 -95.2542 88° East 267 307 4,800 -1,672 Descending Houston Center
Tue 06:33:05 PM 30.1058 -95.2200 92° East 272 313 4,200 -1,275 Descending Houston Center
Tue 06:34:06 PM 30.0983 -95.1386 96° East 248 285 3,100 -686 Descending Houston Center
Tue 06:34:50 PM 30.0606 -95.1311 170° South 227 261 3,000 -441 Descending Houston Center
Tue 06:35:14 PM 30.0286 -95.1353 186° South 196 226 2,600 -1,000 Descending Houston Center

Login

Don't have an account? Register now (free) for customized features, flight alerts, and more!